createdAt,value
2023-01-22T00:01:30.620Z,-0.50
2023-01-22T00:04:03.052Z,-0.50
2023-01-22T00:06:32.092Z,-0.50
2023-01-22T00:09:03.734Z,-0.50
2023-01-22T00:11:32.104Z,-0.60
2023-01-22T00:14:00.354Z,-0.70
2023-01-22T00:16:33.009Z,-0.60
2023-01-22T00:19:01.337Z,-0.60
2023-01-22T00:21:29.488Z,-0.40
2023-01-22T00:23:57.793Z,-0.50
2023-01-22T00:26:26.986Z,-0.40
2023-01-22T00:28:55.519Z,-0.50
2023-01-22T00:31:24.226Z,-0.50
2023-01-22T00:33:56.508Z,-0.50
2023-01-22T00:36:24.810Z,-0.60
2023-01-22T00:38:53.276Z,-0.70
2023-01-22T00:41:21.941Z,-0.70
2023-01-22T00:43:52.825Z,-0.70
2023-01-22T00:46:21.424Z,-0.60
2023-01-22T00:48:51.064Z,-0.60
2023-01-22T00:51:23.759Z,-0.60
2023-01-22T00:53:52.027Z,-0.60
2023-01-22T00:56:20.276Z,-0.70
2023-01-22T00:58:48.589Z,-0.60
2023-01-22T01:01:17.846Z,-0.50
2023-01-22T01:03:46.154Z,-0.60
2023-01-22T01:06:18.193Z,-0.50
2023-01-22T01:08:50.244Z,-0.50
2023-01-22T01:11:22.231Z,-0.40
2023-01-22T01:13:51.621Z,-0.40
2023-01-22T01:16:24.455Z,-0.30
2023-01-22T01:18:53.226Z,-0.20
2023-01-22T01:21:21.669Z,-0.20
2023-01-22T01:23:51.632Z,-0.20
2023-01-22T01:26:20.086Z,-0.30
2023-01-22T01:28:48.506Z,-0.10
2023-01-22T01:31:17.849Z,-0.30
2023-01-22T01:33:46.873Z,-0.30
2023-01-22T01:36:19.669Z,-0.40
2023-01-22T01:38:55.296Z,-0.20
2023-01-22T01:41:26.772Z,-0.30
2023-01-22T01:44:09.566Z,-0.20
2023-01-22T01:46:42.688Z,-0.20
2023-01-22T01:49:23.293Z,-0.20
2023-01-22T01:51:53.023Z,-0.30
2023-01-22T01:54:22.873Z,-0.30
2023-01-22T01:56:54.125Z,-0.20
2023-01-22T01:59:23.669Z,-0.20
2023-01-22T02:01:55.938Z,-0.30
2023-01-22T02:04:25.680Z,-0.40
2023-01-22T02:06:55.391Z,-0.40
2023-01-22T02:09:25.183Z,-0.40
2023-01-22T02:11:54.747Z,-0.30
2023-01-22T02:14:26.856Z,-0.20
2023-01-22T02:17:01.933Z,-0.10
2023-01-22T02:19:30.176Z,-0.10
2023-01-22T02:21:59.929Z,-0.20
2023-01-22T02:24:31.411Z,-0.20
2023-01-22T02:26:59.667Z,-0.30
2023-01-22T02:29:28.972Z,-0.20
2023-01-22T02:31:57.545Z,-0.10
2023-01-22T02:34:25.913Z,-0.10
2023-01-22T02:36:55.530Z,0.00
2023-01-22T02:39:25.243Z,0.00
2023-01-22T02:41:54.722Z,0.00
2023-01-22T02:44:24.424Z,0.00
2023-01-22T02:46:52.745Z,0.00
2023-01-22T02:49:20.982Z,-0.10
2023-01-22T02:51:49.351Z,0.00
2023-01-22T02:54:17.682Z,0.10
2023-01-22T02:56:47.300Z,0.10
2023-01-22T02:59:15.699Z,0.10
2023-01-22T03:01:44.642Z,0.10
2023-01-22T03:04:12.886Z,0.00
2023-01-22T03:06:44.413Z,0.10
2023-01-22T03:09:14.143Z,0.10
2023-01-22T03:11:44.313Z,-0.10
2023-01-22T03:14:35.512Z,0.00
2023-01-22T03:17:21.987Z,0.00
2023-01-22T03:20:07.643Z,0.10
2023-01-22T03:22:36.023Z,0.00
2023-01-22T03:25:04.301Z,0.00
2023-01-22T03:27:33.453Z,-0.10
2023-01-22T03:30:03.130Z,0.00
2023-01-22T03:32:35.300Z,-0.10
2023-01-22T03:35:03.721Z,-0.20
2023-01-22T03:37:46.161Z,-0.30
2023-01-22T03:40:14.781Z,-0.20
2023-01-22T03:42:43.263Z,-0.20
2023-01-22T03:45:13.353Z,-0.30
2023-01-22T03:47:42.009Z,-0.30
2023-01-22T03:50:31.866Z,-0.20
2023-01-22T03:53:00.168Z,-0.40
2023-01-22T03:55:31.871Z,-0.40
2023-01-22T03:58:00.207Z,-0.30
2023-01-22T04:00:29.848Z,-0.30
2023-01-22T04:02:58.788Z,-0.30
2023-01-22T04:05:32.514Z,-0.30
2023-01-22T04:08:01.313Z,-0.30
2023-01-22T04:10:32.113Z,-0.20
2023-01-22T04:13:02.950Z,-0.30
2023-01-22T04:15:32.562Z,-0.20
2023-01-22T04:18:04.140Z,-0.20
2023-01-22T04:21:07.451Z,-0.20
2023-01-22T04:23:43.494Z,-0.10
2023-01-22T04:26:12.337Z,0.00
2023-01-22T04:28:40.640Z,-0.20
2023-01-22T04:31:11.156Z,-0.30
2023-01-22T04:33:43.687Z,-0.30
2023-01-22T04:36:18.075Z,-0.30
2023-01-22T04:38:46.603Z,-0.30
2023-01-22T04:41:14.894Z,-0.10
2023-01-22T04:43:43.189Z,-0.20
2023-01-22T04:46:12.894Z,-0.20
2023-01-22T04:48:41.339Z,-0.20
2023-01-22T04:51:09.678Z,-0.20
2023-01-22T04:53:39.363Z,-0.10
2023-01-22T04:56:09.220Z,-0.30
2023-01-22T04:58:37.445Z,-0.30
2023-01-22T05:01:07.606Z,-0.30
2023-01-22T05:03:37.340Z,-0.20
2023-01-22T05:06:08.801Z,-0.20
2023-01-22T05:08:38.579Z,-0.20
2023-01-22T05:11:07.979Z,-0.10
2023-01-22T05:13:43.611Z,-0.10
2023-01-22T05:16:12.083Z,0.00
2023-01-22T05:18:41.776Z,0.00
2023-01-22T05:21:10.135Z,0.00
2023-01-22T05:23:39.176Z,-0.10
2023-01-22T05:26:08.884Z,-0.10
2023-01-22T05:28:42.695Z,-0.10
2023-01-22T05:31:39.460Z,-0.10
2023-01-22T05:34:13.805Z,-0.10
2023-01-22T05:36:42.741Z,0.00
2023-01-22T05:39:20.093Z,0.00
2023-01-22T05:41:48.905Z,-0.10
2023-01-22T05:44:17.187Z,-0.10
2023-01-22T05:46:50.943Z,-0.10
2023-01-22T05:49:43.657Z,-0.10
2023-01-22T05:52:14.652Z,-0.10
2023-01-22T05:54:42.943Z,-0.20
2023-01-22T05:57:11.257Z,-0.10
2023-01-22T05:59:40.851Z,-0.10
2023-01-22T06:02:10.332Z,-0.10
2023-01-22T06:04:45.537Z,-0.10
2023-01-22T06:07:24.249Z,-0.20
2023-01-22T06:09:52.640Z,-0.20
2023-01-22T06:12:21.073Z,-0.10
2023-01-22T06:14:49.361Z,-0.10
2023-01-22T06:17:18.099Z,-0.40
2023-01-22T06:19:55.361Z,-0.30
2023-01-22T06:22:23.643Z,-0.30
2023-01-22T06:24:56.064Z,-0.30
2023-01-22T06:27:28.211Z,-0.40
2023-01-22T06:30:00.969Z,-0.30
2023-01-22T06:32:30.079Z,-0.30
2023-01-22T06:35:01.705Z,-0.30
2023-01-22T06:37:30.579Z,-0.40
2023-01-22T06:39:59.028Z,-0.40
2023-01-22T06:42:37.867Z,-0.30
2023-01-22T06:45:08.091Z,-0.20
2023-01-22T06:47:38.099Z,-0.20
2023-01-22T06:50:08.860Z,-0.20
2023-01-22T06:52:37.150Z,-0.10
2023-01-22T06:55:06.124Z,-0.20
2023-01-22T06:57:34.521Z,-0.20
2023-01-22T07:00:04.705Z,-0.20
2023-01-22T07:02:33.173Z,-0.10
2023-01-22T07:05:01.363Z,-0.30
2023-01-22T07:07:31.028Z,-0.40
2023-01-22T07:09:59.278Z,-0.40
2023-01-22T07:12:27.531Z,-0.30
2023-01-22T07:14:55.805Z,-0.40
2023-01-22T07:17:24.112Z,-0.50
2023-01-22T07:19:52.392Z,-0.50
2023-01-22T07:22:20.641Z,-0.60
2023-01-22T07:24:50.288Z,-0.50
2023-01-22T07:27:18.527Z,-0.40
2023-01-22T07:29:50.065Z,-0.40
2023-01-22T07:32:18.424Z,-0.50
2023-01-22T07:34:46.617Z,-0.60
2023-01-22T07:37:14.911Z,-0.60
2023-01-22T07:39:43.182Z,-0.50
2023-01-22T07:42:13.602Z,-0.50
2023-01-22T07:44:42.964Z,-0.40
2023-01-22T07:47:11.217Z,-0.30
2023-01-22T07:49:39.531Z,-0.50
2023-01-22T07:52:07.746Z,-0.40
2023-01-22T07:54:43.028Z,-0.40
2023-01-22T07:57:15.433Z,-0.40
2023-01-22T07:59:43.894Z,-0.20
2023-01-22T08:02:16.032Z,-0.30
2023-01-22T08:04:44.413Z,-0.30
2023-01-22T08:07:17.616Z,-0.30
2023-01-22T08:09:45.895Z,-0.30
2023-01-22T08:12:15.485Z,-0.20
2023-01-22T08:14:43.734Z,-0.20
2023-01-22T08:17:12.036Z,-0.10
2023-01-22T08:19:40.302Z,0.20
2023-01-22T08:22:08.949Z,0.10
2023-01-22T08:24:37.478Z,0.00
2023-01-22T08:27:05.904Z,0.00
2023-01-22T08:29:35.606Z,0.00
2023-01-22T08:32:04.028Z,-0.10
2023-01-22T08:34:32.251Z,0.00
2023-01-22T08:37:00.493Z,-0.10
2023-01-22T08:39:28.785Z,0.00
2023-01-22T08:41:57.668Z,0.00
2023-01-22T08:44:28.286Z,0.00
2023-01-22T08:46:58.607Z,0.10
2023-01-22T08:49:26.887Z,0.10
2023-01-22T08:51:55.224Z,0.20
2023-01-22T08:54:26.859Z,0.00
2023-01-22T08:56:55.037Z,0.00
2023-01-22T08:59:23.364Z,0.00
2023-01-22T09:01:51.715Z,0.10
2023-01-22T09:04:21.392Z,0.10
2023-01-22T09:06:49.643Z,0.10
2023-01-22T09:09:18.108Z,0.10
2023-01-22T09:11:46.890Z,0.30
2023-01-22T09:14:15.227Z,0.30
2023-01-22T09:16:43.576Z,0.40
2023-01-22T09:19:12.327Z,0.40
2023-01-22T09:21:42.067Z,0.40
2023-01-22T09:24:10.464Z,0.40
2023-01-22T09:26:38.721Z,0.40
2023-01-22T09:29:09.355Z,0.50
2023-01-22T09:31:38.071Z,0.60
2023-01-22T09:34:06.570Z,0.60
2023-01-22T09:36:34.782Z,0.80
2023-01-22T09:39:04.449Z,0.80
2023-01-22T09:41:36.653Z,1.00
2023-01-22T09:44:14.334Z,0.90
2023-01-22T09:46:46.592Z,0.90
2023-01-22T09:49:17.601Z,1.00
2023-01-22T09:51:48.084Z,0.90
2023-01-22T09:54:18.059Z,1.00
2023-01-22T09:56:50.007Z,0.90
2023-01-22T09:59:21.509Z,0.70
2023-01-22T10:01:54.000Z,0.80
2023-01-22T10:04:30.447Z,0.70
2023-01-22T10:07:01.587Z,0.80
2023-01-22T10:09:35.600Z,0.70
2023-01-22T10:12:13.365Z,0.80
2023-01-22T10:14:43.750Z,0.70
2023-01-22T10:17:31.235Z,0.80
2023-01-22T10:20:02.483Z,1.00
2023-01-22T10:22:30.967Z,1.10
2023-01-22T10:25:00.552Z,1.20
2023-01-22T10:27:36.131Z,1.10
2023-01-22T10:30:09.843Z,1.00
2023-01-22T10:32:38.047Z,1.30
2023-01-22T10:35:14.090Z,1.40
2023-01-22T10:37:46.733Z,1.60
2023-01-22T10:40:28.947Z,1.50
2023-01-22T10:43:11.272Z,1.50
2023-01-22T10:45:40.346Z,1.70
2023-01-22T10:48:14.328Z,1.60
2023-01-22T10:50:43.664Z,1.50
2023-01-22T10:53:21.017Z,1.50
2023-01-22T10:55:56.189Z,1.70
2023-01-22T10:58:28.689Z,1.70
2023-01-22T11:00:59.475Z,1.70
2023-01-22T11:03:33.315Z,1.70
2023-01-22T11:06:06.037Z,1.80
2023-01-22T11:08:45.544Z,1.80
2023-01-22T11:11:17.172Z,1.90
2023-01-22T11:13:51.859Z,1.90
2023-01-22T11:16:22.650Z,1.80
2023-01-22T11:18:56.942Z,1.70
2023-01-22T11:21:29.194Z,1.70
2023-01-22T11:24:05.147Z,1.60
2023-01-22T11:27:05.195Z,1.80
2023-01-22T11:30:14.843Z,1.60
2023-01-22T11:32:57.259Z,1.60
2023-01-22T11:35:29.428Z,1.90
2023-01-22T11:38:15.273Z,1.80
2023-01-22T11:40:59.835Z,1.80
2023-01-22T11:43:41.819Z,1.90
2023-01-22T11:46:27.809Z,2.00
2023-01-22T11:49:07.130Z,1.90
2023-01-22T11:51:40.937Z,1.90
2023-01-22T11:54:33.166Z,1.90
2023-01-22T11:57:11.079Z,1.90
2023-01-22T11:59:57.492Z,2.10
2023-01-22T12:02:50.786Z,2.20
2023-01-22T12:05:33.829Z,2.20
2023-01-22T12:08:18.133Z,2.20
2023-01-22T12:11:13.564Z,2.00
2023-01-22T12:14:13.462Z,1.80
2023-01-22T12:16:51.256Z,1.70
2023-01-22T12:19:48.821Z,1.70
2023-01-22T12:22:29.084Z,1.70
2023-01-22T12:25:02.621Z,1.70
2023-01-22T12:27:35.351Z,1.70
2023-01-22T12:30:16.976Z,1.80
2023-01-22T12:32:52.420Z,1.90
2023-01-22T12:35:22.508Z,2.00
2023-01-22T12:37:56.561Z,1.90
2023-01-22T12:40:54.559Z,1.70
2023-01-22T12:43:29.282Z,1.40
2023-01-22T12:46:05.732Z,1.70
2023-01-22T12:48:42.669Z,1.70
2023-01-22T12:51:26.298Z,1.80
2023-01-22T12:53:54.717Z,1.70
2023-01-22T12:56:33.885Z,1.90
2023-01-22T12:59:02.246Z,1.90
2023-01-22T13:01:35.420Z,2.00
2023-01-22T13:04:07.874Z,2.00
2023-01-22T13:06:38.257Z,2.00
2023-01-22T13:09:08.284Z,1.90
2023-01-22T13:11:41.282Z,1.90
2023-01-22T13:14:19.084Z,1.80
2023-01-22T13:16:54.688Z,1.80
2023-01-22T13:19:26.326Z,1.70
2023-01-22T13:21:59.630Z,1.80
2023-01-22T13:24:28.031Z,1.70
2023-01-22T13:26:59.938Z,1.50
2023-01-22T13:29:32.936Z,1.40
2023-01-22T13:32:03.301Z,1.40
2023-01-22T13:34:33.560Z,1.40
2023-01-22T13:37:01.819Z,1.40
2023-01-22T13:39:32.045Z,1.50
2023-01-22T13:42:05.345Z,1.40
2023-01-22T13:44:35.956Z,1.40
2023-01-22T13:47:05.104Z,1.30
2023-01-22T13:49:37.089Z,1.30
2023-01-22T13:52:08.149Z,1.10
2023-01-22T13:54:43.030Z,1.10
2023-01-22T13:57:14.281Z,1.10
2023-01-22T13:59:53.430Z,1.10
2023-01-22T14:02:28.219Z,1.20
2023-01-22T14:04:58.565Z,1.00
2023-01-22T14:07:28.551Z,1.10
2023-01-22T14:09:58.386Z,1.00
2023-01-22T14:12:30.220Z,1.00
2023-01-22T14:14:58.597Z,1.10
2023-01-22T14:17:30.375Z,1.10
2023-01-22T14:20:00.032Z,1.30
2023-01-22T14:22:28.691Z,1.30
2023-01-22T14:24:56.959Z,1.50
2023-01-22T14:27:28.351Z,1.50
2023-01-22T14:29:56.867Z,1.50
2023-01-22T14:32:26.683Z,1.30
2023-01-22T14:34:54.977Z,1.30
2023-01-22T14:37:24.638Z,1.30
2023-01-22T14:39:53.040Z,1.40
2023-01-22T14:42:26.499Z,1.40
2023-01-22T14:44:54.979Z,1.30
2023-01-22T14:47:23.231Z,1.30
2023-01-22T14:49:51.502Z,1.30
2023-01-22T14:52:19.768Z,1.40
2023-01-22T14:54:49.411Z,1.20
2023-01-22T14:57:17.776Z,1.20
2023-01-22T14:59:46.034Z,1.10
2023-01-22T15:02:14.323Z,1.20
2023-01-22T15:04:43.704Z,1.30
2023-01-22T15:07:12.832Z,1.20
2023-01-22T15:09:41.242Z,1.20
2023-01-22T15:12:11.576Z,1.30
2023-01-22T15:14:39.893Z,1.30
2023-01-22T15:17:08.142Z,1.30
2023-01-22T15:19:41.422Z,1.30
2023-01-22T15:22:10.310Z,1.20
2023-01-22T15:24:39.402Z,1.30
2023-01-22T15:27:08.378Z,1.20
2023-01-22T15:29:38.275Z,1.30
2023-01-22T15:32:06.629Z,1.20
2023-01-22T15:34:34.902Z,1.10
2023-01-22T15:37:04.992Z,1.10
2023-01-22T15:39:33.360Z,1.00
2023-01-22T15:42:01.596Z,1.10
2023-01-22T15:44:29.890Z,1.10
2023-01-22T15:47:01.586Z,1.10
2023-01-22T15:49:29.897Z,1.00
2023-01-22T15:51:58.076Z,1.10
2023-01-22T15:54:26.908Z,1.00
2023-01-22T15:56:55.558Z,0.90
2023-01-22T15:59:23.862Z,1.10
2023-01-22T16:01:52.400Z,0.90
2023-01-22T16:04:22.104Z,0.80
2023-01-22T16:06:59.021Z,0.80
2023-01-22T16:09:27.302Z,0.90
2023-01-22T16:11:56.969Z,0.90
2023-01-22T16:14:25.271Z,0.80
2023-01-22T16:16:53.564Z,0.90
2023-01-22T16:19:23.194Z,0.90
2023-01-22T16:21:52.341Z,0.90
2023-01-22T16:24:20.594Z,1.00
2023-01-22T16:26:48.943Z,1.00
2023-01-22T16:29:19.340Z,1.00
2023-01-22T16:31:48.654Z,1.00
2023-01-22T16:34:19.705Z,1.00
2023-01-22T16:36:50.325Z,1.00
2023-01-22T16:39:20.803Z,1.20
2023-01-22T16:41:52.692Z,1.10
2023-01-22T16:44:26.039Z,1.10
2023-01-22T16:46:57.616Z,1.00
2023-01-22T16:49:27.778Z,1.10
2023-01-22T16:52:03.161Z,1.10
2023-01-22T16:54:39.624Z,1.00
2023-01-22T16:57:09.683Z,1.00
2023-01-22T16:59:40.893Z,1.00
2023-01-22T17:02:14.084Z,1.10
2023-01-22T17:04:42.544Z,1.10
2023-01-22T17:07:27.426Z,1.10
2023-01-22T17:10:00.237Z,1.10
2023-01-22T17:12:28.530Z,1.10
2023-01-22T17:14:59.196Z,1.10
2023-01-22T17:17:27.439Z,1.00
2023-01-22T17:19:55.777Z,1.00
2023-01-22T17:22:25.501Z,1.10
2023-01-22T17:24:53.833Z,1.10
2023-01-22T17:27:22.119Z,1.20
2023-01-22T17:29:50.348Z,1.10
2023-01-22T17:32:18.666Z,1.10
2023-01-22T17:34:46.943Z,1.10
2023-01-22T17:37:15.286Z,1.30
2023-01-22T17:39:50.532Z,1.30
2023-01-22T17:42:18.957Z,1.10
2023-01-22T17:44:47.159Z,1.20
2023-01-22T17:47:15.463Z,1.20
2023-01-22T17:49:43.728Z,1.30
2023-01-22T17:52:12.373Z,1.20
2023-01-22T17:54:41.081Z,1.20
2023-01-22T17:57:11.466Z,1.20
2023-01-22T17:59:39.831Z,1.00
2023-01-22T18:02:08.092Z,1.10
2023-01-22T18:04:37.179Z,1.10
2023-01-22T18:07:05.807Z,1.20
2023-01-22T18:09:34.066Z,1.10
2023-01-22T18:12:02.909Z,1.00
2023-01-22T18:14:34.001Z,1.00
2023-01-22T18:17:03.075Z,1.10
2023-01-22T18:19:31.483Z,1.10
2023-01-22T18:21:59.867Z,1.10
2023-01-22T18:24:31.130Z,1.10
2023-01-22T18:26:59.980Z,1.10
2023-01-22T18:29:28.318Z,1.00
2023-01-22T18:31:58.134Z,1.00
2023-01-22T18:34:28.812Z,0.90
2023-01-22T18:36:57.081Z,1.00
2023-01-22T18:39:25.926Z,1.10
2023-01-22T18:41:54.231Z,1.10
2023-01-22T18:44:27.378Z,1.20
2023-01-22T18:46:59.268Z,1.10
2023-01-22T18:49:28.890Z,1.10
2023-01-22T18:52:00.762Z,1.10
2023-01-22T18:54:29.892Z,1.00
2023-01-22T18:57:00.613Z,1.10
2023-01-22T18:59:28.855Z,1.20
2023-01-22T19:01:58.518Z,1.10
2023-01-22T19:04:28.664Z,1.20
2023-01-22T19:06:57.276Z,1.10
2023-01-22T19:09:26.911Z,1.10
2023-01-22T19:11:55.630Z,1.00
2023-01-22T19:14:23.942Z,1.00
2023-01-22T19:16:53.798Z,1.00
2023-01-22T19:19:27.224Z,0.90
2023-01-22T19:21:57.932Z,0.90
2023-01-22T19:24:28.315Z,1.10
2023-01-22T19:26:57.407Z,1.10
2023-01-22T19:29:26.783Z,1.20
2023-01-22T19:31:56.984Z,1.30
2023-01-22T19:34:30.300Z,1.40
2023-01-22T19:37:01.229Z,1.40
2023-01-22T19:39:30.048Z,1.30
2023-01-22T19:42:01.803Z,1.30
2023-01-22T19:44:30.596Z,1.30
2023-01-22T19:46:59.112Z,1.30
2023-01-22T19:49:28.975Z,1.30
2023-01-22T19:51:57.475Z,1.20
2023-01-22T19:54:25.828Z,1.20
2023-01-22T19:56:54.587Z,1.20
2023-01-22T19:59:24.395Z,1.20
2023-01-22T20:01:53.103Z,1.10
2023-01-22T20:04:23.917Z,1.10
2023-01-22T20:06:57.178Z,1.20
2023-01-22T20:09:25.777Z,1.30
2023-01-22T20:11:55.904Z,1.10
2023-01-22T20:14:26.278Z,1.20
2023-01-22T20:16:54.587Z,1.20
2023-01-22T20:19:22.927Z,1.20
2023-01-22T20:21:51.239Z,1.30
2023-01-22T20:24:20.880Z,1.30
2023-01-22T20:26:49.621Z,1.30
2023-01-22T20:29:17.956Z,1.20
2023-01-22T20:31:47.879Z,1.30
2023-01-22T20:34:16.228Z,1.30
2023-01-22T20:36:44.529Z,1.30
2023-01-22T20:39:13.287Z,1.40
2023-01-22T20:41:42.944Z,1.50
2023-01-22T20:44:12.128Z,1.50
2023-01-22T20:46:43.676Z,1.20
2023-01-22T20:49:12.906Z,1.40
2023-01-22T20:51:42.227Z,1.40
2023-01-22T20:54:11.592Z,1.40
2023-01-22T20:56:39.936Z,1.40
2023-01-22T20:59:12.322Z,1.30
2023-01-22T21:01:41.206Z,1.30
2023-01-22T21:04:09.906Z,1.50
2023-01-22T21:06:39.787Z,1.50
2023-01-22T21:09:09.508Z,1.40
2023-01-22T21:11:40.044Z,1.50
2023-01-22T21:14:11.762Z,1.60
2023-01-22T21:16:43.243Z,1.60
2023-01-22T21:19:17.128Z,1.60
2023-01-22T21:21:45.727Z,1.50
2023-01-22T21:24:14.051Z,1.50
2023-01-22T21:26:42.559Z,1.50
2023-01-22T21:29:15.208Z,1.60
2023-01-22T21:31:44.574Z,1.50
2023-01-22T21:34:13.101Z,1.60
2023-01-22T21:36:45.022Z,1.70
2023-01-22T21:39:15.015Z,1.70
2023-01-22T21:41:43.813Z,1.70
2023-01-22T21:44:32.953Z,1.50
2023-01-22T21:47:01.567Z,1.60
2023-01-22T21:49:30.717Z,1.60
2023-01-22T21:52:00.581Z,1.60
2023-01-22T21:54:30.690Z,1.50
2023-01-22T21:56:58.968Z,1.60
2023-01-22T21:59:28.612Z,1.70
2023-01-22T22:01:57.221Z,1.50
2023-01-22T22:04:27.876Z,1.40
2023-01-22T22:06:56.272Z,1.50
2023-01-22T22:09:26.620Z,1.60
2023-01-22T22:11:57.207Z,1.40
2023-01-22T22:14:26.153Z,1.40
2023-01-22T22:16:56.251Z,1.40
2023-01-22T22:19:25.286Z,1.50
2023-01-22T22:21:53.595Z,1.40
2023-01-22T22:24:22.795Z,1.40
2023-01-22T22:26:51.210Z,1.50
2023-01-22T22:29:19.592Z,1.60
2023-01-22T22:31:47.901Z,1.60
2023-01-22T22:34:17.656Z,1.50
2023-01-22T22:36:45.960Z,1.70
2023-01-22T22:39:14.219Z,1.70
2023-01-22T22:41:42.575Z,1.70
2023-01-22T22:44:11.637Z,1.50
2023-01-22T22:46:40.675Z,1.50
2023-01-22T22:49:12.884Z,1.50
2023-01-22T22:51:44.218Z,1.60
2023-01-22T22:54:18.142Z,1.50
2023-01-22T22:56:52.889Z,1.60
2023-01-22T22:59:21.450Z,1.70
2023-01-22T23:01:52.127Z,1.70
2023-01-22T23:04:23.292Z,1.70
2023-01-22T23:06:54.340Z,1.60
2023-01-22T23:09:22.792Z,1.70
2023-01-22T23:11:52.106Z,1.70
2023-01-22T23:14:23.140Z,1.80
2023-01-22T23:16:51.833Z,1.50
2023-01-22T23:19:24.347Z,1.60
2023-01-22T23:21:56.020Z,1.70
2023-01-22T23:24:24.841Z,1.70
2023-01-22T23:26:57.475Z,1.70
2023-01-22T23:29:26.652Z,1.70
2023-01-22T23:31:55.940Z,1.80
2023-01-22T23:34:24.579Z,1.70
2023-01-22T23:36:54.171Z,1.70
2023-01-22T23:39:24.712Z,1.80
2023-01-22T23:41:52.981Z,1.70
2023-01-22T23:44:21.257Z,1.80
2023-01-22T23:46:49.589Z,1.70
2023-01-22T23:49:17.874Z,1.70
2023-01-22T23:51:46.194Z,1.80
2023-01-22T23:54:18.723Z,1.70
2023-01-22T23:56:50.975Z,1.70
2023-01-22T23:59:19.823Z,1.70
